createdAt,value
2017-03-29T00:00:07.640Z,1014.15
2017-03-29T00:00:48.098Z,1014.14
2017-03-29T00:01:28.581Z,1014.13
2017-03-29T00:02:09.054Z,1014.13
2017-03-29T00:04:01.609Z,1014.17
2017-03-29T00:04:42.095Z,1014.16
2017-03-29T00:05:22.568Z,1014.16
2017-03-29T00:06:03.021Z,1014.1
2017-03-29T00:06:43.459Z,1014.11
2017-03-29T00:07:23.897Z,1014.1
2017-03-29T00:09:36.597Z,1014.14
2017-03-29T00:10:17.127Z,1014.09
2017-03-29T00:10:57.585Z,1014.09
2017-03-29T00:11:38.056Z,1014.13
2017-03-29T00:12:18.493Z,1014.12
2017-03-29T00:12:58.936Z,1014.09
2017-03-29T00:13:39.361Z,1014.11
2017-03-29T00:14:19.835Z,1014.14
2017-03-29T00:15:00.252Z,1014.12
2017-03-29T00:15:40.708Z,1014.15
2017-03-29T00:16:21.156Z,1014.18
2017-03-29T00:17:01.647Z,1014.15
2017-03-29T00:17:42.072Z,1014.16
2017-03-29T00:18:22.531Z,1014.19
2017-03-29T00:19:02.957Z,1014.17
2017-03-29T00:19:43.399Z,1014.19
2017-03-29T00:20:23.807Z,1014.18
2017-03-29T00:21:04.229Z,1014.2
2017-03-29T00:23:32.179Z,1014.25
2017-03-29T00:24:12.647Z,1014.23
2017-03-29T00:24:53.095Z,1014.25
2017-03-29T00:25:33.530Z,1014.26
2017-03-29T00:26:14.017Z,1014.28
2017-03-29T00:26:54.460Z,1014.3
2017-03-29T00:27:34.899Z,1014.27
2017-03-29T00:28:15.355Z,1014.27
2017-03-29T00:28:55.836Z,1014.29
2017-03-29T00:29:36.278Z,1014.25
2017-03-29T00:30:16.742Z,1014.24
2017-03-29T00:30:57.167Z,1014.26
2017-03-29T00:31:37.602Z,1014.29
2017-03-29T00:32:18.038Z,1014.26
2017-03-29T00:32:58.488Z,1014.25
2017-03-29T00:33:38.930Z,1014.28
2017-03-29T00:34:19.391Z,1014.26
2017-03-29T00:34:59.838Z,1014.29
2017-03-29T00:35:40.275Z,1014.29
2017-03-29T00:36:20.721Z,1014.26
2017-03-29T00:37:01.143Z,1014.28
2017-03-29T00:37:41.582Z,1014.26
2017-03-29T00:38:22.031Z,1014.23
2017-03-29T00:39:02.480Z,1014.3
2017-03-29T00:39:42.913Z,1014.31
2017-03-29T00:40:23.348Z,1014.3
2017-03-29T00:41:03.806Z,1014.29
2017-03-29T00:41:44.224Z,1014.27
2017-03-29T00:42:24.677Z,1014.29
2017-03-29T00:44:17.247Z,1014.28
2017-03-29T00:44:57.713Z,1014.32
2017-03-29T00:45:38.191Z,1014.29
2017-03-29T00:48:06.127Z,1014.3
2017-03-29T00:48:46.574Z,1014.26
2017-03-29T00:49:27.075Z,1014.27
2017-03-29T00:50:07.557Z,1014.28
2017-03-29T00:52:35.461Z,1014.26
2017-03-29T00:53:15.950Z,1014.28
2017-03-29T00:53:56.408Z,1014.27
2017-03-29T00:54:36.879Z,1014.27
2017-03-29T00:55:17.279Z,1014.26
2017-03-29T00:57:30.023Z,1014.27
2017-03-29T00:58:10.490Z,1014.21
2017-03-29T00:58:50.937Z,1014.24
2017-03-29T00:59:31.401Z,1014.26
2017-03-29T01:00:11.862Z,1014.27
2017-03-29T01:00:52.303Z,1014.26
2017-03-29T01:03:20.183Z,1014.32
2017-03-29T01:04:00.655Z,1014.35
2017-03-29T01:04:41.057Z,1014.32
2017-03-29T01:05:21.538Z,1014.3
2017-03-29T01:07:49.465Z,1014.35
2017-03-29T01:08:29.946Z,1014.33
2017-03-29T01:09:10.415Z,1014.32
2017-03-29T01:09:50.858Z,1014.31
2017-03-29T01:10:31.283Z,1014.32
2017-03-29T01:11:11.771Z,1014.32
2017-03-29T01:11:52.225Z,1014.3
2017-03-29T01:13:44.825Z,1014.3
2017-03-29T01:14:25.275Z,1014.29
2017-03-29T01:15:05.775Z,1014.29
2017-03-29T01:15:46.244Z,1014.3
2017-03-29T01:16:26.682Z,1014.31
2017-03-29T01:18:39.403Z,1014.32
2017-03-29T01:19:19.849Z,1014.32
2017-03-29T01:20:00.324Z,1014.28
2017-03-29T01:20:40.766Z,1014.31
2017-03-29T01:21:21.205Z,1014.33
2017-03-29T01:22:01.697Z,1014.33
2017-03-29T01:22:42.120Z,1014.32
2017-03-29T01:23:22.572Z,1014.34
2017-03-29T01:24:03.029Z,1014.33
2017-03-29T01:24:43.478Z,1014.37
2017-03-29T01:25:23.976Z,1014.34
2017-03-29T01:26:04.445Z,1014.35
2017-03-29T01:26:44.879Z,1014.34
2017-03-29T01:27:25.333Z,1014.34
2017-03-29T01:29:17.903Z,1014.3
2017-03-29T01:29:58.358Z,1014.28
2017-03-29T01:30:38.842Z,1014.31
2017-03-29T01:31:19.288Z,1014.31
2017-03-29T01:31:59.752Z,1014.32
2017-03-29T01:32:40.207Z,1014.33
2017-03-29T01:33:20.650Z,1014.29
2017-03-29T01:34:01.110Z,1014.33
2017-03-29T01:34:41.574Z,1014.31
2017-03-29T01:35:22.010Z,1014.33
2017-03-29T01:37:14.588Z,1014.3
2017-03-29T01:37:55.008Z,1014.32
2017-03-29T01:38:35.417Z,1014.34
2017-03-29T01:39:15.868Z,1014.32
2017-03-29T01:39:56.326Z,1014.29
2017-03-29T01:42:14.136Z,1014.38
2017-03-29T01:42:54.586Z,1014.42
2017-03-29T01:43:35.053Z,1014.35
2017-03-29T01:44:15.523Z,1014.39
2017-03-29T01:44:55.962Z,1014.41
2017-03-29T01:45:36.433Z,1014.41
2017-03-29T01:46:16.860Z,1014.39
2017-03-29T01:46:57.300Z,1014.38
2017-03-29T01:47:37.752Z,1014.43
2017-03-29T01:48:18.171Z,1014.35
2017-03-29T01:50:30.865Z,1014.41
2017-03-29T01:51:11.306Z,1014.41
2017-03-29T01:51:51.773Z,1014.36
2017-03-29T01:52:32.227Z,1014.34
2017-03-29T01:53:12.679Z,1014.39
2017-03-29T01:53:53.136Z,1014.38
2017-03-29T01:54:33.563Z,1014.38
2017-03-29T01:55:14.011Z,1014.41
2017-03-29T01:55:54.424Z,1014.41
2017-03-29T01:56:34.880Z,1014.39
2017-03-29T01:57:15.302Z,1014.41
2017-03-29T01:57:55.767Z,1014.4
2017-03-29T01:58:36.220Z,1014.4
2017-03-29T01:59:16.644Z,1014.39
2017-03-29T01:59:57.101Z,1014.43
2017-03-29T02:00:37.557Z,1014.41
2017-03-29T02:01:17.996Z,1014.45
2017-03-29T02:01:58.419Z,1014.38
2017-03-29T02:02:38.869Z,1014.4
2017-03-29T02:03:19.327Z,1014.42
2017-03-29T02:03:59.732Z,1014.41
2017-03-29T02:04:40.235Z,1014.44
2017-03-29T02:05:20.690Z,1014.43
2017-03-29T02:06:01.142Z,1014.43
2017-03-29T02:06:41.598Z,1014.42
2017-03-29T02:07:22.044Z,1014.43
2017-03-29T02:08:02.504Z,1014.42
2017-03-29T02:08:42.961Z,1014.42
2017-03-29T02:09:23.436Z,1014.47
2017-03-29T02:10:03.906Z,1014.47
2017-03-29T02:10:44.313Z,1014.46
2017-03-29T02:11:24.765Z,1014.49
2017-03-29T02:12:05.215Z,1014.51
2017-03-29T02:14:17.928Z,1014.52
2017-03-29T02:14:58.402Z,1014.54
2017-03-29T02:15:38.875Z,1014.56
2017-03-29T02:16:19.317Z,1014.55
2017-03-29T02:16:59.752Z,1014.54
2017-03-29T02:17:40.195Z,1014.52
2017-03-29T02:18:20.620Z,1014.54
2017-03-29T02:19:01.053Z,1014.53
2017-03-29T02:19:41.491Z,1014.5
2017-03-29T02:20:21.908Z,1014.53
2017-03-29T02:21:02.374Z,1014.51
2017-03-29T02:21:42.779Z,1014.53
2017-03-29T02:22:23.206Z,1014.55
2017-03-29T02:23:03.694Z,1014.53
2017-03-29T02:23:44.146Z,1014.56
2017-03-29T02:24:24.583Z,1014.54
2017-03-29T02:25:05.034Z,1014.54
2017-03-29T02:25:45.490Z,1014.57
2017-03-29T02:26:25.959Z,1014.58
2017-03-29T02:27:06.391Z,1014.59
2017-03-29T02:27:46.815Z,1014.57
2017-03-29T02:28:27.284Z,1014.61
2017-03-29T02:29:07.721Z,1014.58
2017-03-29T02:29:48.220Z,1014.6
2017-03-29T02:30:28.627Z,1014.59
2017-03-29T02:31:09.105Z,1014.58
2017-03-29T02:31:49.574Z,1014.61
2017-03-29T02:32:30.003Z,1014.6
2017-03-29T02:34:47.810Z,1014.6
2017-03-29T02:35:28.281Z,1014.61
2017-03-29T02:36:08.759Z,1014.64
2017-03-29T02:36:49.149Z,1014.62
2017-03-29T02:37:29.606Z,1014.65
2017-03-29T02:38:10.111Z,1014.63
2017-03-29T02:38:50.538Z,1014.62
2017-03-29T02:39:30.966Z,1014.61
2017-03-29T02:41:48.785Z,1014.59
2017-03-29T02:42:29.193Z,1014.59
2017-03-29T02:43:09.662Z,1014.61
2017-03-29T02:43:50.116Z,1014.61
2017-03-29T02:44:30.550Z,1014.62
2017-03-29T02:45:11.039Z,1014.66
2017-03-29T02:45:51.452Z,1014.61
2017-03-29T02:46:31.891Z,1014.59
2017-03-29T02:47:12.320Z,1014.64
2017-03-29T02:47:52.759Z,1014.6
2017-03-29T02:48:33.229Z,1014.64
2017-03-29T02:50:51.077Z,1014.64
2017-03-29T02:51:31.492Z,1014.67
2017-03-29T02:52:11.940Z,1014.67
2017-03-29T02:52:52.372Z,1014.65
2017-03-29T02:53:32.819Z,1014.67
2017-03-29T02:54:13.276Z,1014.69
2017-03-29T02:54:53.805Z,1014.72
2017-03-29T02:55:34.262Z,1014.66
2017-03-29T02:56:14.755Z,1014.7
2017-03-29T02:56:55.185Z,1014.7
2017-03-29T02:59:23.104Z,1014.73
2017-03-29T03:00:03.571Z,1014.74
2017-03-29T03:00:44.020Z,1014.78
2017-03-29T03:01:24.498Z,1014.74
2017-03-29T03:02:04.952Z,1014.79
2017-03-29T03:02:45.417Z,1014.77
2017-03-29T03:03:25.861Z,1014.81
2017-03-29T03:04:06.308Z,1014.79
2017-03-29T03:06:03.964Z,1014.78
2017-03-29T03:06:44.419Z,1014.82
2017-03-29T03:07:24.865Z,1014.83
2017-03-29T03:08:05.367Z,1014.82
2017-03-29T03:08:45.796Z,1014.8
2017-03-29T03:09:26.239Z,1014.84
2017-03-29T03:10:06.663Z,1014.82
2017-03-29T03:10:47.115Z,1014.78
2017-03-29T03:11:27.627Z,1014.82
2017-03-29T03:12:08.109Z,1014.79
2017-03-29T03:12:48.542Z,1014.87
2017-03-29T03:13:29.004Z,1014.83
2017-03-29T03:14:09.453Z,1014.84
2017-03-29T03:14:49.904Z,1014.86
2017-03-29T03:15:30.372Z,1014.92
2017-03-29T03:16:10.831Z,1014.91
2017-03-29T03:16:51.276Z,1014.9
2017-03-29T03:17:31.718Z,1014.91
2017-03-29T03:18:12.183Z,1014.86
2017-03-29T03:18:52.620Z,1014.89
2017-03-29T03:19:33.074Z,1014.89
2017-03-29T03:20:13.513Z,1014.87
2017-03-29T03:20:53.946Z,1014.92
2017-03-29T03:21:34.402Z,1014.9
2017-03-29T03:22:14.834Z,1014.91
2017-03-29T03:22:55.329Z,1014.9
2017-03-29T03:23:35.767Z,1014.93
2017-03-29T03:24:16.214Z,1014.92
2017-03-29T03:24:56.644Z,1014.92
2017-03-29T03:25:37.083Z,1014.89
2017-03-29T03:26:17.539Z,1014.88
2017-03-29T03:28:45.456Z,1014.93
2017-03-29T03:29:25.922Z,1014.92
2017-03-29T03:30:06.374Z,1014.94
2017-03-29T03:30:46.817Z,1014.95
2017-03-29T03:31:27.244Z,1014.93
2017-03-29T03:33:39.971Z,1014.94
2017-03-29T03:34:20.368Z,1014.91
2017-03-29T03:35:00.801Z,1014.91
2017-03-29T03:35:41.280Z,1014.94
2017-03-29T03:36:21.726Z,1014.92
2017-03-29T03:37:02.200Z,1014.91
2017-03-29T03:37:42.669Z,1014.94
2017-03-29T03:38:23.122Z,1014.96
2017-03-29T03:39:03.580Z,1014.92
2017-03-29T03:41:21.386Z,1015
2017-03-29T03:42:01.787Z,1014.98
2017-03-29T03:42:42.223Z,1014.97
2017-03-29T03:43:22.675Z,1014.94
2017-03-29T03:44:03.101Z,1014.95
2017-03-29T03:46:20.933Z,1014.97
2017-03-29T03:47:01.393Z,1014.94
2017-03-29T03:47:41.870Z,1014.94
2017-03-29T03:48:22.360Z,1014.95
2017-03-29T03:49:02.798Z,1014.94
2017-03-29T03:49:43.257Z,1014.94
2017-03-29T03:50:23.696Z,1014.97
2017-03-29T03:51:04.160Z,1014.95
2017-03-29T03:51:44.619Z,1014.98
2017-03-29T03:52:25.043Z,1014.99
2017-03-29T03:53:05.461Z,1014.92
2017-03-29T03:54:58.033Z,1014.98
2017-03-29T03:55:38.456Z,1014.96
2017-03-29T03:56:18.971Z,1014.94
2017-03-29T03:56:59.380Z,1014.96
2017-03-29T03:57:39.788Z,1015.01
2017-03-29T03:58:20.241Z,1015.01
2017-03-29T03:59:00.667Z,1014.98
2017-03-29T03:59:41.107Z,1014.96
2017-03-29T04:00:21.550Z,1014.96
2017-03-29T04:01:01.991Z,1015
2017-03-29T04:01:42.440Z,1014.97
2017-03-29T04:03:35.040Z,1014.96
2017-03-29T04:04:15.447Z,1014.97
2017-03-29T04:04:55.904Z,1014.99
2017-03-29T04:05:36.318Z,1015
2017-03-29T04:06:16.785Z,1014.95
2017-03-29T04:08:14.391Z,1014.95
2017-03-29T04:08:54.910Z,1014.93
2017-03-29T04:09:35.361Z,1014.96
2017-03-29T04:12:03.283Z,1014.95
2017-03-29T04:12:43.733Z,1014.93
2017-03-29T04:13:24.167Z,1014.96
2017-03-29T04:14:04.624Z,1014.96
2017-03-29T04:14:45.107Z,1014.96
2017-03-29T04:15:25.567Z,1014.93
2017-03-29T04:16:06.021Z,1014.91
2017-03-29T04:16:46.437Z,1014.94
2017-03-29T04:17:26.904Z,1014.94
2017-03-29T04:18:07.360Z,1014.96
2017-03-29T04:18:47.840Z,1014.94
2017-03-29T04:19:28.318Z,1014.93
2017-03-29T04:20:08.753Z,1014.9
2017-03-29T04:20:49.236Z,1014.91
2017-03-29T04:21:29.671Z,1014.88
2017-03-29T04:22:10.114Z,1014.91
2017-03-29T04:22:50.541Z,1014.9
2017-03-29T04:23:30.964Z,1014.92
2017-03-29T04:24:11.456Z,1014.87
2017-03-29T04:24:51.883Z,1014.91
2017-03-29T04:25:32.280Z,1014.89
2017-03-29T04:26:12.710Z,1014.87
2017-03-29T04:26:53.158Z,1014.9
2017-03-29T04:27:33.622Z,1014.93
2017-03-29T04:28:14.074Z,1014.9
2017-03-29T04:28:54.556Z,1014.87
2017-03-29T04:29:35.032Z,1014.89
2017-03-29T04:31:32.669Z,1014.89
2017-03-29T04:32:13.094Z,1014.95
2017-03-29T04:32:53.543Z,1014.95
2017-03-29T04:33:34.052Z,1014.97
2017-03-29T04:34:14.504Z,1014.97
2017-03-29T04:34:54.963Z,1014.97
2017-03-29T04:35:35.410Z,1014.98
2017-03-29T04:36:15.920Z,1014.97
2017-03-29T04:36:56.506Z,1014.95
2017-03-29T04:37:36.943Z,1014.99
2017-03-29T04:38:17.399Z,1014.99
2017-03-29T04:38:57.883Z,1015.01
2017-03-29T04:39:38.361Z,1014.98
2017-03-29T04:40:18.843Z,1014.98
2017-03-29T04:40:59.324Z,1014.99
2017-03-29T04:41:39.796Z,1015
2017-03-29T04:42:20.212Z,1014.97
2017-03-29T04:43:00.674Z,1014.96
2017-03-29T04:43:41.110Z,1015
2017-03-29T04:44:21.543Z,1015.04
2017-03-29T04:45:01.962Z,1015
2017-03-29T04:45:42.408Z,1015.02
2017-03-29T04:46:22.859Z,1015.03
2017-03-29T04:47:03.368Z,1015.06
2017-03-29T04:47:43.785Z,1015.04
2017-03-29T04:48:24.224Z,1015.06
2017-03-29T04:49:04.678Z,1015.08
2017-03-29T04:49:45.140Z,1015.04
2017-03-29T04:50:25.595Z,1015.06
2017-03-29T04:51:06.049Z,1015.07
2017-03-29T04:53:33.994Z,1015.09
2017-03-29T04:54:14.402Z,1015.1
2017-03-29T04:54:54.855Z,1015.09
2017-03-29T04:55:35.338Z,1015.1
2017-03-29T04:56:15.769Z,1015.11
2017-03-29T04:56:56.213Z,1015.12
2017-03-29T04:57:36.645Z,1015.12
2017-03-29T04:58:17.051Z,1015.11
2017-03-29T04:58:57.529Z,1015.12
2017-03-29T04:59:37.965Z,1015.13
2017-03-29T05:00:18.429Z,1015.13
2017-03-29T05:00:58.908Z,1015.12
2017-03-29T05:01:39.372Z,1015.17
2017-03-29T05:02:19.821Z,1015.13
2017-03-29T05:04:47.767Z,1015.15
2017-03-29T05:05:28.171Z,1015.16
2017-03-29T05:06:08.623Z,1015.17
2017-03-29T05:06:49.085Z,1015.16
2017-03-29T05:07:29.566Z,1015.15
2017-03-29T05:08:10.019Z,1015.18
2017-03-29T05:10:07.636Z,1015.15
2017-03-29T05:10:48.098Z,1015.19
2017-03-29T05:11:28.575Z,1015.2
2017-03-29T05:12:09.029Z,1015.22
2017-03-29T05:12:49.468Z,1015.21
2017-03-29T05:13:29.917Z,1015.2
2017-03-29T05:14:10.339Z,1015.18
2017-03-29T05:14:50.784Z,1015.19
2017-03-29T05:15:31.251Z,1015.2
2017-03-29T05:16:11.688Z,1015.2
2017-03-29T05:16:52.121Z,1015.19
2017-03-29T05:17:32.567Z,1015.19
2017-03-29T05:18:13.002Z,1015.19
2017-03-29T05:18:53.483Z,1015.23
2017-03-29T05:19:33.907Z,1015.21
2017-03-29T05:20:14.337Z,1015.2
2017-03-29T05:20:54.768Z,1015.21
2017-03-29T05:21:35.228Z,1015.23
2017-03-29T05:22:15.673Z,1015.23
2017-03-29T05:22:56.153Z,1015.23
2017-03-29T05:23:36.589Z,1015.24
2017-03-29T05:24:17.040Z,1015.27
2017-03-29T05:24:57.470Z,1015.25
2017-03-29T05:25:37.898Z,1015.22
2017-03-29T05:26:18.347Z,1015.22
2017-03-29T05:26:58.814Z,1015.26
2017-03-29T05:28:51.390Z,1015.27
2017-03-29T05:29:31.866Z,1015.21
2017-03-29T05:30:12.334Z,1015.26
2017-03-29T05:30:52.817Z,1015.26
2017-03-29T05:31:33.258Z,1015.27
2017-03-29T05:33:30.876Z,1015.26
2017-03-29T05:34:11.342Z,1015.3
2017-03-29T05:34:51.834Z,1015.3
2017-03-29T05:35:32.291Z,1015.27
2017-03-29T05:38:00.238Z,1015.29
2017-03-29T05:38:40.687Z,1015.28
2017-03-29T05:39:21.164Z,1015.31
2017-03-29T05:40:01.657Z,1015.29
2017-03-29T05:40:42.133Z,1015.31
2017-03-29T05:41:22.637Z,1015.35
2017-03-29T05:43:20.291Z,1015.35
2017-03-29T05:44:00.740Z,1015.36
2017-03-29T05:44:41.178Z,1015.36
2017-03-29T05:45:21.647Z,1015.34
2017-03-29T05:46:02.097Z,1015.36
2017-03-29T05:48:14.761Z,1015.42
2017-03-29T05:48:55.221Z,1015.39
2017-03-29T05:49:35.665Z,1015.38
2017-03-29T05:50:16.129Z,1015.46
2017-03-29T05:50:56.558Z,1015.45
2017-03-29T05:51:37.027Z,1015.42
2017-03-29T05:52:18.126Z,1015.46
2017-03-29T05:54:30.824Z,1015.48
2017-03-29T05:55:11.363Z,1015.47
2017-03-29T05:55:51.869Z,1015.45
2017-03-29T05:56:32.353Z,1015.47
2017-03-29T05:57:12.835Z,1015.44
2017-03-29T05:57:53.353Z,1015.42
2017-03-29T05:58:33.813Z,1015.38
2017-03-29T05:59:14.292Z,1015.43
2017-03-29T05:59:54.790Z,1015.41
2017-03-29T06:00:35.274Z,1015.44
2017-03-29T06:01:15.705Z,1015.44
2017-03-29T06:01:56.201Z,1015.48
2017-03-29T06:02:36.666Z,1015.48
2017-03-29T06:03:17.100Z,1015.45
2017-03-29T06:05:09.663Z,1015.45
2017-03-29T06:05:50.146Z,1015.48
2017-03-29T06:06:30.622Z,1015.49
2017-03-29T06:07:11.119Z,1015.52
2017-03-29T06:07:51.645Z,1015.5
2017-03-29T06:08:32.135Z,1015.52
2017-03-29T06:10:49.980Z,1015.56
2017-03-29T06:11:30.460Z,1015.57
2017-03-29T06:12:10.919Z,1015.54
2017-03-29T06:12:51.425Z,1015.58
2017-03-29T06:13:31.875Z,1015.58
2017-03-29T06:14:12.347Z,1015.6
2017-03-29T06:14:52.803Z,1015.56
2017-03-29T06:15:33.263Z,1015.56
2017-03-29T06:16:13.718Z,1015.57
2017-03-29T06:16:54.191Z,1015.57
2017-03-29T06:17:34.650Z,1015.54
2017-03-29T06:18:15.101Z,1015.56
2017-03-29T06:18:55.560Z,1015.6
2017-03-29T06:19:36.001Z,1015.59
2017-03-29T06:20:16.439Z,1015.59
2017-03-29T06:20:56.882Z,1015.6
2017-03-29T06:21:37.326Z,1015.57
2017-03-29T06:22:17.753Z,1015.59
2017-03-29T06:22:58.204Z,1015.56
2017-03-29T06:23:38.716Z,1015.59
2017-03-29T06:24:19.149Z,1015.58
2017-03-29T06:26:16.900Z,1015.6
2017-03-29T06:26:57.370Z,1015.59
2017-03-29T06:27:37.908Z,1015.56
2017-03-29T06:28:18.393Z,1015.57
2017-03-29T06:28:58.881Z,1015.57
2017-03-29T06:29:39.384Z,1015.59
2017-03-29T06:30:19.860Z,1015.57
2017-03-29T06:31:00.340Z,1015.58
2017-03-29T06:31:40.821Z,1015.59
2017-03-29T06:32:21.397Z,1015.57
2017-03-29T06:33:01.894Z,1015.59
2017-03-29T06:33:42.344Z,1015.6
2017-03-29T06:34:22.795Z,1015.61
2017-03-29T06:35:03.244Z,1015.59
2017-03-29T06:35:43.667Z,1015.6
2017-03-29T06:36:24.117Z,1015.59
2017-03-29T06:37:04.552Z,1015.68
2017-03-29T06:39:22.379Z,1015.66
2017-03-29T06:40:02.850Z,1015.65
2017-03-29T06:40:43.341Z,1015.64
2017-03-29T06:41:23.829Z,1015.67
2017-03-29T06:42:04.343Z,1015.7
2017-03-29T06:42:44.818Z,1015.69
2017-03-29T06:43:25.318Z,1015.66
2017-03-29T06:44:05.808Z,1015.68
2017-03-29T06:44:46.256Z,1015.7
2017-03-29T06:45:26.729Z,1015.68
2017-03-29T06:46:07.235Z,1015.68
2017-03-29T06:46:47.627Z,1015.71
2017-03-29T06:47:28.097Z,1015.66
2017-03-29T06:48:08.573Z,1015.67
2017-03-29T06:48:49.029Z,1015.68
2017-03-29T06:49:29.466Z,1015.65
2017-03-29T06:50:09.906Z,1015.67
2017-03-29T06:50:50.348Z,1015.7
2017-03-29T06:51:30.829Z,1015.68
2017-03-29T06:52:11.308Z,1015.71
2017-03-29T06:52:51.888Z,1015.66
2017-03-29T06:53:32.320Z,1015.7
2017-03-29T06:54:12.768Z,1015.76
2017-03-29T06:56:05.346Z,1015.73
2017-03-29T06:56:45.901Z,1015.72
2017-03-29T06:57:26.531Z,1015.76
2017-03-29T06:58:07.214Z,1015.72
2017-03-29T06:58:47.783Z,1015.77
2017-03-29T06:59:28.349Z,1015.79
2017-03-29T07:00:08.874Z,1015.78
2017-03-29T07:00:49.431Z,1015.79
2017-03-29T07:01:29.895Z,1015.79
2017-03-29T07:02:10.377Z,1015.8
2017-03-29T07:02:51.367Z,1015.78
2017-03-29T07:03:32.062Z,1015.82
2017-03-29T07:04:12.520Z,1015.84
2017-03-29T07:04:53.159Z,1015.88
2017-03-29T07:05:33.834Z,1015.9
2017-03-29T07:06:14.379Z,1015.94
2017-03-29T07:06:54.908Z,1015.96
2017-03-29T07:07:35.435Z,1015.94
2017-03-29T07:08:15.964Z,1016
2017-03-29T07:08:56.498Z,1016
2017-03-29T07:09:36.986Z,1016.02
2017-03-29T07:10:17.495Z,1016.02
2017-03-29T07:10:57.951Z,1015.98
2017-03-29T07:11:38.451Z,1015.98
2017-03-29T07:12:18.954Z,1016
2017-03-29T07:14:31.701Z,1016.09
2017-03-29T07:15:12.194Z,1016.09
2017-03-29T07:15:52.712Z,1016.07
2017-03-29T07:16:33.205Z,1016.09
2017-03-29T07:17:13.686Z,1016.14
2017-03-29T07:17:54.194Z,1016.14
2017-03-29T07:18:34.666Z,1016.13
2017-03-29T07:19:15.142Z,1016.15
2017-03-29T07:19:55.640Z,1016.2
2017-03-29T07:20:36.134Z,1016.19
2017-03-29T07:21:16.537Z,1016.24
2017-03-29T07:21:56.991Z,1016.25
2017-03-29T07:22:37.581Z,1016.26
2017-03-29T07:23:17.998Z,1016.27
2017-03-29T07:23:58.450Z,1016.33
2017-03-29T07:24:38.902Z,1016.36
2017-03-29T07:25:19.332Z,1016.36
2017-03-29T07:25:59.776Z,1016.34
2017-03-29T07:26:40.219Z,1016.36
2017-03-29T07:27:20.639Z,1016.33
2017-03-29T07:28:01.117Z,1016.3
2017-03-29T07:28:41.542Z,1016.28
2017-03-29T07:29:21.999Z,1016.36
2017-03-29T07:30:02.442Z,1016.3
2017-03-29T07:30:42.957Z,1016.34
2017-03-29T07:31:23.386Z,1016.38
2017-03-29T07:32:03.883Z,1016.35
2017-03-29T07:32:44.327Z,1016.38
2017-03-29T07:33:24.857Z,1016.39
2017-03-29T07:34:05.333Z,1016.42
2017-03-29T07:34:45.766Z,1016.38
2017-03-29T07:35:26.253Z,1016.42
2017-03-29T07:36:06.732Z,1016.44
2017-03-29T07:38:04.397Z,1016.49
2017-03-29T07:38:44.861Z,1016.48
2017-03-29T07:39:25.297Z,1016.48
2017-03-29T07:40:05.770Z,1016.53
2017-03-29T07:42:23.568Z,1016.63
2017-03-29T07:43:04.047Z,1016.65
2017-03-29T07:43:44.539Z,1016.66
2017-03-29T07:44:25.073Z,1016.65
2017-03-29T07:45:05.527Z,1016.71
2017-03-29T07:45:45.976Z,1016.69
2017-03-29T07:46:26.421Z,1016.71
2017-03-29T07:47:06.897Z,1016.7
2017-03-29T07:47:47.324Z,1016.77
2017-03-29T07:48:27.796Z,1016.74
2017-03-29T07:49:08.229Z,1016.77
2017-03-29T07:49:48.666Z,1016.76
2017-03-29T07:50:29.113Z,1016.77
2017-03-29T07:51:09.559Z,1016.85
2017-03-29T07:51:50.041Z,1016.83
2017-03-29T07:52:30.441Z,1016.86
2017-03-29T07:54:58.425Z,1016.85
2017-03-29T07:55:38.894Z,1016.88
2017-03-29T07:57:56.746Z,1016.95
2017-03-29T07:58:37.245Z,1016.96
2017-03-29T07:59:17.706Z,1017
2017-03-29T07:59:58.132Z,1017.02
2017-03-29T08:00:38.648Z,1017.04
2017-03-29T08:01:19.140Z,1017.02
2017-03-29T08:02:00.302Z,1017.02
2017-03-29T08:02:40.772Z,1016.98
2017-03-29T08:06:42.132Z,1017.09
2017-03-29T08:07:22.617Z,1017.15
2017-03-29T08:08:03.105Z,1017.15
2017-03-29T08:08:43.612Z,1017.15
2017-03-29T08:09:24.103Z,1017.11
2017-03-29T08:10:04.676Z,1017.16
2017-03-29T08:10:45.282Z,1017.17
2017-03-29T08:11:25.798Z,1017.19
2017-03-29T08:13:53.745Z,1017.17
2017-03-29T08:14:34.232Z,1017.1
2017-03-29T08:15:14.711Z,1017.13
2017-03-29T08:15:55.144Z,1017.07
2017-03-29T08:16:35.620Z,1017.07
2017-03-29T08:17:16.049Z,1017.06
2017-03-29T08:19:13.686Z,1016.95
2017-03-29T08:19:54.168Z,1016.96
2017-03-29T08:20:34.639Z,1016.94
2017-03-29T08:21:15.131Z,1016.89
2017-03-29T08:21:55.644Z,1016.86
2017-03-29T08:22:36.167Z,1016.93
2017-03-29T08:23:16.640Z,1017.03
2017-03-29T08:25:09.336Z,1018.39
2017-03-29T08:25:49.759Z,1018.84
2017-03-29T08:26:30.241Z,1018.49
2017-03-29T08:28:48.080Z,1016.62
2017-03-29T08:29:28.563Z,1016.61
2017-03-29T08:30:09.061Z,1016.57
2017-03-29T08:30:49.595Z,1016.56
2017-03-29T08:31:30.071Z,1016.54
2017-03-29T08:32:10.565Z,1016.53
2017-03-29T08:32:51.010Z,1016.48
2017-03-29T08:33:31.484Z,1016.51
2017-03-29T08:34:11.942Z,1016.47
2017-03-29T08:38:17.320Z,1016.48
2017-03-29T08:38:57.772Z,1016.47
2017-03-29T08:41:25.821Z,1016.6
2017-03-29T08:42:06.247Z,1016.84
2017-03-29T08:42:46.684Z,1017.09
2017-03-29T08:44:39.308Z,1017.31
2017-03-29T08:45:19.760Z,1017.34
2017-03-29T08:46:00.252Z,1017.28
2017-03-29T08:46:40.696Z,1017.22
2017-03-29T08:47:21.132Z,1017.2
2017-03-29T08:48:01.588Z,1017.23
2017-03-29T08:48:42.044Z,1017.24
2017-03-29T08:49:22.506Z,1017.3
2017-03-29T08:50:02.954Z,1017.2
2017-03-29T08:52:20.776Z,1017.29
2017-03-29T08:53:01.261Z,1017.26
2017-03-29T08:53:41.733Z,1017.15
2017-03-29T08:54:22.176Z,1017.08
2017-03-29T08:55:02.694Z,1017.1
2017-03-29T08:57:30.689Z,1017.29
2017-03-29T08:58:11.180Z,1017.22
2017-03-29T08:58:51.784Z,1017.17
2017-03-29T08:59:33.708Z,1017.12
2017-03-29T09:00:14.194Z,1017.12
2017-03-29T09:00:54.661Z,1017.12
2017-03-29T09:01:35.102Z,1017.09
2017-03-29T09:03:47.871Z,1016.7
2017-03-29T09:04:28.410Z,1016.61
2017-03-29T09:05:08.884Z,1016.64
2017-03-29T09:05:49.401Z,1016.64
2017-03-29T09:06:30.001Z,1016.6
2017-03-29T09:07:10.436Z,1016.64
2017-03-29T09:07:50.900Z,1016.63
2017-03-29T09:08:31.367Z,1016.66
2017-03-29T09:09:11.804Z,1016.65
2017-03-29T09:09:52.323Z,1016.65
2017-03-29T09:10:32.852Z,1016.67
2017-03-29T09:11:13.352Z,1016.69
2017-03-29T09:11:53.831Z,1016.72
2017-03-29T09:12:34.294Z,1016.74
2017-03-29T09:13:14.770Z,1016.78
2017-03-29T09:13:55.246Z,1016.79
2017-03-29T09:14:35.676Z,1016.87
2017-03-29T09:15:16.112Z,1016.89
2017-03-29T09:17:08.717Z,1016.96
2017-03-29T09:17:49.251Z,1016.93
2017-03-29T09:18:29.840Z,1016.93
2017-03-29T09:19:10.329Z,1016.89
2017-03-29T09:19:50.820Z,1016.93
2017-03-29T09:20:31.317Z,1016.91
2017-03-29T09:21:11.763Z,1016.87
2017-03-29T09:21:52.222Z,1016.89
2017-03-29T09:22:32.668Z,1016.86
2017-03-29T09:23:13.122Z,1016.84
2017-03-29T09:23:53.592Z,1016.9
2017-03-29T09:24:34.062Z,1016.9
2017-03-29T09:25:14.512Z,1016.89
2017-03-29T09:25:54.967Z,1016.81
2017-03-29T09:26:35.440Z,1016.82
2017-03-29T09:27:15.937Z,1016.76
2017-03-29T09:27:56.421Z,1016.75
2017-03-29T09:29:49.003Z,1016.77
2017-03-29T09:30:29.505Z,1016.77
2017-03-29T09:31:09.996Z,1016.79
2017-03-29T09:31:50.433Z,1016.82
2017-03-29T09:32:30.970Z,1016.78
2017-03-29T09:33:11.468Z,1016.9
2017-03-29T09:33:51.932Z,1016.88
2017-03-29T09:34:32.378Z,1016.84
2017-03-29T09:35:12.959Z,1016.91
2017-03-29T09:35:53.360Z,1016.89
2017-03-29T09:37:51.053Z,1016.85
2017-03-29T09:38:31.504Z,1016.79
2017-03-29T09:39:11.948Z,1016.81
2017-03-29T09:39:52.415Z,1016.81
2017-03-29T09:40:32.848Z,1016.86
2017-03-29T09:41:13.317Z,1016.85
2017-03-29T09:41:53.860Z,1016.83
2017-03-29T09:42:34.345Z,1016.83
2017-03-29T09:43:14.830Z,1016.85
2017-03-29T09:43:55.311Z,1016.85
2017-03-29T09:44:35.817Z,1016.91
2017-03-29T09:45:16.303Z,1016.92
2017-03-29T09:45:57.500Z,1016.91
2017-03-29T09:46:37.971Z,1016.9
2017-03-29T09:47:18.442Z,1016.92
2017-03-29T09:47:58.916Z,1016.86
2017-03-29T09:48:39.375Z,1016.9
2017-03-29T09:49:19.899Z,1016.87